• Join FlightAware (Why Join?)
  • Login
  • US Flag 
07:14AM EDT


 

Airport Tracker/Info


-or-


 

Live Flight TrackerFlight Track Log ✈ DAL3982 ✈ 25-Apr-2013 ✈ KATL - CYUL

Flight Track Log - Related Links

Times and Time Zones

All times are in EDT time to prevent confusion due to time zone crossing. See the DAL3982 flight status page for this flight to view local times or setup timezone preferences in your user account.

Time Position Orientation Groundspeed Altitude Reporting Facility
EDT Latitude Longitude Course Direction KTS MPH feet Rate Location/Type
09:09PM 33.6494 -84.4706 North 446 513 2,800  Level Atlanta Center
09:10PM 33.6667 -84.5000 305° West 208 239 3,300 2,460 Climbing Atlanta TRACON
09:11PM 33.6833 -84.5667 287° West 264 304 6,300 2,640 Climbing Atlanta TRACON
09:12PM 33.7994 -84.5811 354° North 280 322 10,200 1,800 Climbing Atlanta Center
09:13PM 33.9170 -84.2503 320° Northwest  Level FlightAware Approximate
09:13PM 33.8789 -84.5392 24° Northeast 294 338 11,100  Level Atlanta Center
09:14PM 34.0303 -84.2667 North  Level FlightAware Approximate
09:14PM 33.9856 -84.4697 28° Northeast 348 400 12,800  Level Atlanta Center
09:15PM 34.1485 -84.2667 North  Level FlightAware Approximate
09:15PM 34.0797 -84.4125 27° Northeast 366 421 14,900  Level Atlanta Center
09:16PM 34.1800 -84.3503 27° Northeast 391 450 17,000 1,560 Climbing Atlanta Center
09:17PM 34.2783 -84.2903 27° Northeast 391 450 18,100 1,140 Climbing Atlanta Center
09:18PM 34.3931 -84.2578 13° North 398 458 19,300 1,080 Climbing Atlanta Center
09:19PM 34.4953 -84.2328 11° North 410 472 20,300 1,320 Climbing Atlanta Center
09:20PM 34.6144 -84.2053 11° North 426 490 22,000 1,620 Climbing Atlanta Center
09:21PM 34.7250 -84.1778 12° North 426 490 23,600 1,260 Climbing Atlanta Center
09:22PM 34.8439 -84.1525 10° North 426 490 24,600 900 Climbing Atlanta Center
09:23PM 34.9631 -84.1250 11° North 431 496 25,400 780 Climbing Atlanta Center
09:24PM 35.0861 -84.0947 11° North 436 502 26,200 900 Climbing Atlanta Center
09:25PM 35.2092 -84.0642 11° North 441 507 27,200 1,260 Climbing Atlanta Center
09:26PM 35.3322 -84.0183 17° North 451 519 28,800 1,440 Climbing Atlanta Center
09:27PM 35.4492 -83.9647 20° North 451 519 30,100 1,080 Climbing Atlanta Center
09:28PM 35.5658 -83.9136 20° North 451 519 31,000 780 Climbing Atlanta Center
09:29PM 35.6828 -83.8622 20° North 446 513 31,700 600 Climbing Atlanta Center
09:30PM 35.8014 -83.8108 19° North 446 513 32,200 540 Climbing Atlanta Center
09:31PM 35.9203 -83.7542 21° North 451 519 32,800 540 Climbing Atlanta Center
09:32PM 36.0433 -83.7022 19° North 451 519 33,300 480 Climbing Atlanta Center
09:33PM 36.1619 -83.6453 21° North 451 519 33,800 480 Climbing Atlanta Center
09:34PM 36.2828 -83.5931 19° North 451 519 34,300 540 Climbing Atlanta Center
09:35PM 36.3797 -83.5472 21° North 461 531 34,700 360 Climbing Indianapolis Center
09:36PM 36.5019 -83.4911 20° North 461 531 35,000 120 Climbing Indianapolis Center
09:37PM 36.6244 -83.4358 20° North 465 535 35,000  Level Indianapolis Center
09:38PM 36.7450 -83.3594 27° Northeast 480 552 35,000 60 Level Indianapolis Center
09:39PM 36.8647 -83.2831 27° Northeast 479 551 35,200 300 Climbing Indianapolis Center
09:40PM 36.9792 -83.1922 32° Northeast 483 556 35,700 480 Climbing Indianapolis Center
09:41PM 37.0919 -83.0908 36° Northeast 487 560 36,200 540 Climbing Indianapolis Center
09:42PM 37.2025 -82.9906 36° Northeast 483 556 36,900 360 Climbing Indianapolis Center
09:43PM 37.3114 -82.8917 36° Northeast 479 551 37,000  Climbing Indianapolis Center
09:44PM 37.4231 -82.7922 35° Northeast 490 564 37,000  Level Indianapolis Center
09:45PM 37.5331 -82.6919 36° Northeast 488 562 37,000  Level Indianapolis Center
09:46PM 37.6444 -82.5897 36° Northeast 493 567 37,000  Level Indianapolis Center
09:47PM 37.7561 -82.4864 36° Northeast 496 571 37,000  Level Indianapolis Center
09:48PM 37.8675 -82.3833 36° Northeast 496 571 37,000  Level Indianapolis Center
09:49PM 37.9967 -82.2644 36° Northeast 492 566 37,000  Level Indianapolis Center
09:50PM 38.1067 -82.1594 37° Northeast 493 567 37,000  Level Indianapolis Center
09:51PM 38.2164 -82.0592 36° Northeast 487 560 37,000  Level Indianapolis Center
09:52PM 38.3250 -81.9575 36° Northeast 489 563 37,000  Level Indianapolis Center
09:53PM 38.4350 -81.8542 36° Northeast 489 563 37,000  Level Indianapolis Center
09:54PM 38.5456 -81.7500 36° Northeast 491 565 37,000  Level Indianapolis Center
09:56PM 38.6558 -81.6458 36° Northeast 489 563 37,000  Level Indianapolis Center
09:57PM 38.7636 -81.5414 37° Northeast 484 557 37,000  Level Indianapolis Center
09:58PM 38.8808 -81.4300 36° Northeast 487 560 37,000  Level Indianapolis Center
09:59PM 38.9903 -81.3253 37° Northeast 488 562 37,000  Level Indianapolis Center
10:00PM 39.0992 -81.2211 37° Northeast 488 562 37,000  Level Indianapolis Center
10:01PM 39.2081 -81.1150 37° Northeast 491 565 37,000  Level Indianapolis Center
10:02PM 39.3175 -81.0094 37° Northeast 490 564 37,000  Level Indianapolis Center
10:03PM 39.4261 -80.9025 37° Northeast 490 564 37,000  Level Indianapolis Center
10:04PM 39.5344 -80.7967 37° Northeast 488 562 37,000  Level Indianapolis Center
10:05PM 39.6431 -80.6900 37° Northeast 489 563 37,000  Level Indianapolis Center
10:05PM 39.7128 -80.6236 36° Northeast 486 559 37,000  Level Cleveland Center
10:06PM 39.8211 -80.5183 37° Northeast 481 554 37,000  Level Cleveland Center
10:07PM 39.9275 -80.4125 37° Northeast 481 554 37,000  Level Cleveland Center
10:08PM 40.0378 -80.3039 37° Northeast 481 554 37,000  Level Cleveland Center
10:09PM 40.1458 -80.1947 38° Northeast 481 554 37,000  Level Cleveland Center
10:10PM 40.2369 -80.0964 39° Northeast 481 554 37,000  Level Cleveland Center
10:11PM 40.3511 -79.9864 36° Northeast 492 566 37,000  Level Cleveland Center
10:12PM 40.4611 -79.8736 38° Northeast 498 573 37,000  Level Cleveland Center
10:13PM 40.5708 -79.7631 37° Northeast 498 573 37,000  Level Cleveland Center
10:14PM 40.6806 -79.6522 37° Northeast 498 573 37,000  Level Cleveland Center
10:15PM 40.7919 -79.5383 38° Northeast 504 580 37,000  Level Cleveland Center
10:16PM 40.9014 -79.4239 38° Northeast 504 580 37,000  Level Cleveland Center
10:17PM 41.0128 -79.3119 37° Northeast 504 580 37,000  Level Cleveland Center
10:18PM 41.1219 -79.1939 39° Northeast 504 580 37,000  Level Cleveland Center
10:19PM 41.2331 -79.0811 37° Northeast 504 580 37,000  Level Cleveland Center
10:20PM 41.3419 -78.9653 39° Northeast 504 580 37,000  Level Cleveland Center
10:21PM 41.4508 -78.8489 39° Northeast 510 587 37,000  Level Cleveland Center
10:22PM 41.5636 -78.7350 37° Northeast 510 587 37,000  Level Cleveland Center
10:23PM 41.6700 -78.6150 40° Northeast 510 587 37,000  Level Cleveland Center
10:24PM 41.7828 -78.4975 38° Northeast 505 581 37,000  Level Cleveland Center
10:25PM 41.8908 -78.3794 39° Northeast 510 587 37,000  Level Cleveland Center
10:26PM 41.9992 -78.2642 38° Northeast 510 587 37,000  Level Cleveland Center
10:27PM 42.1217 -78.1364 38° Northeast 510 587 37,000  Level Cleveland Center
10:28PM 42.2294 -78.0172 39° Northeast 510 587 37,000  Level Cleveland Center
10:29PM 42.3372 -77.9006 39° Northeast 510 587 37,000  Level Cleveland Center
10:30PM 42.4267 -77.8011 39° Northeast 510 587 37,000  Level Cleveland Center
10:31PM 42.5444 -77.6747 38° Northeast 505 581 37,000  Level Cleveland Center
10:32PM 42.6539 -77.5567 38° Northeast 505 581 37,000  Level Cleveland Center
10:33PM 42.7611 -77.4328 40° Northeast 505 581 37,000  Level Cleveland Center
10:35PM 43.0028 -77.1625 39° Northeast 504 580 37,000  Level Boston Center
10:36PM 43.1081 -77.0397 40° Northeast 504 580 37,000  Level Boston Center
10:37PM 43.2192 -76.9169 39° Northeast 504 580 37,000  Level Boston Center
10:38PM 43.3283 -76.7933 39° Northeast 504 580 37,000  Level Boston Center
10:39PM 43.4350 -76.6694 40° Northeast 504 580 37,000  Level Boston Center
10:40PM 43.5461 -76.5425 40° Northeast 504 580 37,000  Level Boston Center
10:41PM 43.6569 -76.4153 40° Northeast 504 580 37,000  Level Boston Center
10:42PM 43.7656 -76.2872 40° Northeast 504 580 37,000  Level Boston Center
10:43PM 43.8739 -76.1617 40° Northeast 504 580 37,000 -780 Level Boston Center
10:44PM 43.9861 -76.0386 38° Northeast 504 580 35,500 -1,800 Descending Boston Center
10:45PM 44.1019 -75.9358 32° Northeast 504 580 33,500 -1,980 Descending Boston Center
10:46PM 44.2156 -75.8294 34° Northeast 498 573 31,600 -1,920 Descending Boston Center
10:47PM 44.3311 -75.7286 32° Northeast 493 567 29,700 -1,920 Descending Boston Center
10:48PM 44.4464 -75.6244 33° Northeast 493 567 27,800 -1,920 Descending Boston Center
10:49PM 44.5619 -75.5200 33° Northeast 493 567 25,900 -1,920 Descending Boston Center
10:50PM 44.6772 -75.4181 32° Northeast 493 567 24,000 -2,040 Descending Boston Center
10:51PM 44.7167 -75.3500 51° Northeast 490 564 23,200 -1,800 Descending Montreal Center
10:52PM 44.8000 -75.2333 45° Northeast 490 564 21,600 -1,680 Descending Montreal Center
10:53PM 44.8833 -75.0667 55° Northeast 470 541 19,900 -1,620 Descending Montreal Center
10:54PM 44.9500 -74.9500 51° Northeast 450 518 18,400 -1,500 Descending Montreal Center
10:55PM 45.0333 -74.7833 55° Northeast 440 506 17,000 -1,260 Descending Montreal Center
10:56PM 45.0833 -74.6667 59° Northeast 430 495 15,900 -1,200 Descending Montreal Center
10:57PM 45.1500 -74.5167 58° Northeast 420 483 14,700 -1,020 Descending Montreal Center
10:58PM 45.2167 -74.3833 55° Northeast 410 472 13,900 -900 Descending Montreal Center
10:59PM 45.2833 -74.2333 58° Northeast 410 472 13,000 -900 Descending Montreal Center
11:00PM 45.3333 -74.1167 59° Northeast 400 460 12,100 -1,500 Descending Montreal Center
11:01PM 45.3833 -74.0167 55° Northeast 340 391 10,100 -1,740 Descending Montreal Center
11:02PM 45.4500 -73.9167 46° Northeast 270 311 8,700 -1,920 Descending Montreal Center
11:03PM 45.5000 -73.8333 49° Northeast 270 311 6,300 -1,440 Descending Montreal Center
11:04PM 45.5500 -73.7667 43° Northeast 280 322 5,900 -1,140 Descending Montreal Center
11:05PM 45.6167 -73.7000 35° Northeast 270 311 4,100 -960 Descending Montreal Center
11:06PM 45.6667 -73.6333 43° Northeast 220 253 4,000 -420 Descending Montreal Center
11:07PM 45.6667 -73.5667 90° East 230 265 3,300 -540 Descending Montreal Center
11:08PM 45.6000 -73.5500 170° South 220 253 3,000 -300 Descending Montreal Center